Nevsehir, Turkey

9:57 AM EEST on September 30, 2016 (GMT +0300)
Goreme | | Change Station

Elev 3652 ft 38.64 °N, 34.83 °E | Updated 8 minutes ago

Clear
Clear
58.4 °F
Feels Like 58.4 °F
N
0.0
Wind Variable Wind from WSW
Gusts 6.0 mph

Today
High -- | Low -- °F
--% Chance of Precip.
Yesterday
High -- | Low -- °F
Precip. -- in
Pressure 30.21 in
Visibility -9999.0 miles
Clouds
Dew Point 16 °F
Humidity 19%
Rainfall 0.00 in
Snow Depth Not available.
6:36 AM 6:25 PM
Waning Crescent, 0% visible
METAR LTAZ 300620Z VRB02KT CAVOK 14/02 Q1023 RMK RWY29 VRB02KT
Pressure 30.21 in
Visibility -9999.0 miles
Clouds
Dew Point 16 °F
Humidity 19%
Rainfall 0.00 in
Snow Depth Not available.
6:36 AM 6:25 PM
Waning Crescent, 0% visible
METAR LTAZ 300620Z VRB02KT CAVOK 14/02 Q1023 RMK RWY29 VRB02KT

10-Day Weather Forecast

×

Almanac

Astronomy

Sep. 30, 2016 Rise Set
Actual Time
Civil Twilight
Nautical Twilight
Astronomical Twilight
Moon
Length of Visible Light
Length of Day
Tomorrow will be .
, % of the Moon is Illuminated

Today's Extremes

Country Highs Country Lows

Community

WunderPhotos

Upload Photos

1,942,668 photos uploaded!

WunderBlog® & News

Nearby

Air Quality

  Air Quality AQ Index Pollutant
Not available.

Snow Depth

Station Depth Elevation

Earthquake Activity

City Distance Mag. Time & Date
Minimum magnitude displayed is 2.5.

Coastal Water Temperatures

Place Temperature

Stations

Nearby Weather Stations

Station Location Temp. Windchill Dew Point Humidity Wind Precip. Elev Updated Type